Time;durP1;ratioP1;P1;durP2;ratioP2;P2;SDS_P1;SDS_P2;PMS_P1;PMS_P2;Temp;Humidity;BMP_temperature;BMP_pressure;BME280_temperature;BME280_humidity;BME280_pressure;Samples;Min_cycle;Max_cycle;Signal;HPM_P1;HPM_P2
2023/06/23 00:00:00;;;;;;;22.57;13.50;;;20.40;99.90;;;;;;5104582;27;20487;-62
2023/06/23 00:02:27;;;;;;;24.20;14.93;;;20.40;99.90;;;;;;5108546;27;20521;-62
2023/06/23 00:04:54;;;;;;;28.80;17.00;;;20.30;99.90;;;;;;5102554;27;20491;-62
2023/06/23 00:07:21;;;;;;;25.47;16.73;;;20.40;99.90;;;;;;5093216;27;20484;-62
2023/06/23 00:09:49;;;;;;;27.83;17.47;;;20.40;99.90;;;;;;5102024;27;20901;-62
2023/06/23 00:12:15;;;;;;;30.07;20.03;;;20.40;99.90;;;;;;5105926;27;20541;-62
2023/06/23 00:14:42;;;;;;;27.30;20.00;;;20.50;99.90;;;;;;5103579;27;20486;-62
2023/06/23 00:17:09;;;;;;;28.77;20.60;;;20.40;99.90;;;;;;5103796;27;20485;-62
2023/06/23 00:19:36;;;;;;;29.47;19.77;;;20.50;99.90;;;;;;5107059;27;20497;-62
2023/06/23 00:22:03;;;;;;;30.80;21.13;;;20.50;99.90;;;;;;5105721;27;20543;-62
2023/06/23 00:24:30;;;;;;;27.97;19.33;;;20.50;99.90;;;;;;5107421;27;20594;-61
2023/06/23 00:26:59;;;;;;;30.20;19.70;;;20.60;99.90;;;;;;5108758;27;20481;-61
2023/06/23 00:29:25;;;;;;;35.00;22.30;;;20.60;99.90;;;;;;5099376;27;20476;-61
2023/06/23 00:31:53;;;;;;;28.43;20.07;;;20.70;99.90;;;;;;5107442;27;20537;-62
2023/06/23 00:34:19;;;;;;;26.50;18.70;;;20.70;99.90;;;;;;5109238;27;20481;-62
2023/06/23 00:36:46;;;;;;;29.53;18.83;;;20.70;99.90;;;;;;5108133;27;20478;-61
2023/06/23 00:39:13;;;;;;;32.50;22.57;;;20.70;99.90;;;;;;5109340;27;20481;-61
2023/06/23 00:41:40;;;;;;;32.93;19.23;;;20.70;99.90;;;;;;5099326;27;20484;-62
2023/06/23 00:44:11;;;;;;;34.70;22.07;;;20.70;99.90;;;;;;5093690;27;20480;-62
2023/06/23 00:46:39;;;;;;;28.50;20.03;;;20.70;99.90;;;;;;5078907;27;20481;-62
2023/06/23 00:49:05;;;;;;;36.70;24.30;;;20.70;99.80;;;;;;5081922;27;21630;-61
2023/06/23 00:51:32;;;;;;;29.07;21.57;;;20.40;99.70;;;;;;5089200;27;20557;-61
2023/06/23 00:53:59;;;;;;;27.87;21.23;;;20.70;99.80;;;;;;5097478;27;20475;-61
2023/06/23 00:56:26;;;;;;;28.53;22.13;;;20.60;99.60;;;;;;5099536;27;20465;-62
2023/06/23 00:58:53;;;;;;;36.83;26.03;;;20.60;99.80;;;;;;5102127;27;20480;-62
2023/06/23 01:01:22;;;;;;;31.77;23.80;;;20.60;99.80;;;;;;5102751;27;20484;-62
2023/06/23 01:03:48;;;;;;;25.83;21.10;;;20.70;99.90;;;;;;5104534;27;20478;-62
2023/06/23 01:06:22;;;;;;;37.60;26.23;;;20.60;99.90;;;;;;5104968;27;21028;-62
2023/06/23 01:08:58;;;;;;;37.40;25.20;;;20.50;99.90;;;;;;5084338;27;20481;-62
2023/06/23 01:11:32;;;;;;;35.73;25.33;;;20.50;99.90;;;;;;5090568;27;20711;-62
2023/06/23 01:14:07;;;;;;;29.13;22.57;;;21.70;99.90;;;;;;5088580;27;20480;-62
2023/06/23 01:16:44;;;;;;;32.47;22.60;;;20.50;99.90;;;;;;5083254;27;20490;-61
2023/06/23 01:19:22;;;;;;;42.77;28.07;;;20.50;99.90;;;;;;5059205;28;20474;-61
2023/06/23 01:22:00;;;;;;;34.63;25.17;;;20.40;99.90;;;;;;5070319;28;20480;-61
2023/06/23 01:24:42;;;;;;;33.93;23.10;;;20.40;99.90;;;;;;5075170;28;20597;-61
2023/06/23 01:27:43;;;;;;;34.70;24.53;;;20.40;99.90;;;;;;5057548;28;20487;-62
2023/06/23 01:30:14;;;;;;;38.93;26.00;;;20.30;99.90;;;;;;5071515;28;20484;-62
2023/06/23 01:32:45;;;;;;;39.97;27.70;;;20.30;99.90;;;;;;5057648;28;21018;-62
2023/06/23 01:35:19;;;;;;;46.93;29.87;;;20.30;99.90;;;;;;5073858;28;21273;-62
2023/06/23 01:37:51;;;;;;;36.37;26.63;;;20.30;99.90;;;;;;5076521;28;20473;-62
2023/06/23 01:40:19;;;;;;;41.80;29.10;;;20.30;99.90;;;;;;5080337;27;20478;-61
2023/06/23 01:42:50;;;;;;;39.77;29.30;;;20.30;99.90;;;;;;5065031;27;20480;-61
2023/06/23 01:45:20;;;;;;;44.10;30.83;;;20.30;99.90;;;;;;5068463;28;20485;-62
2023/06/23 01:47:49;;;;;;;42.30;28.50;;;20.30;99.90;;;;;;5074889;28;20489;-61
2023/06/23 01:50:18;;;;;;;48.13;32.50;;;20.30;99.90;;;;;;5084575;28;20557;-62
2023/06/23 01:52:46;;;;;;;40.40;30.43;;;20.30;99.90;;;;;;5063036;28;20496;-62
2023/06/23 01:55:15;;;;;;;39.97;30.13;;;20.30;99.90;;;;;;5072904;27;20485;-61
2023/06/23 01:57:43;;;;;;;40.63;29.03;;;20.30;99.90;;;;;;5067593;28;20490;-61
2023/06/23 02:00:13;;;;;;;43.30;30.13;;;20.30;99.90;;;;;;5068464;28;20838;-62
2023/06/23 02:02:43;;;;;;;42.97;29.03;;;20.20;99.90;;;;;;5076827;28;20478;-62
2023/06/23 02:05:11;;;;;;;43.40;31.37;;;20.20;99.90;;;;;;5062481;28;20492;-61
2023/06/23 02:07:40;;;;;;;61.50;32.53;;;20.10;99.90;;;;;;5083601;28;20508;-62
2023/06/23 02:10:08;;;;;;;39.00;29.53;;;20.10;99.90;;;;;;5081940;27;20485;-62
2023/06/23 02:12:36;;;;;;;41.43;29.30;;;20.10;99.90;;;;;;5094972;28;20552;-61
2023/06/23 02:15:06;;;;;;;51.23;34.33;;;20.10;99.90;;;;;;5083509;28;20501;-61
2023/06/23 02:17:34;;;;;;;52.57;35.90;;;20.10;99.90;;;;;;5024221;28;21193;-61
2023/06/23 02:20:13;;;;;;;48.07;34.20;;;;;;;;;;5065181;28;20482;-61
2023/06/23 02:22:43;;;;;;;54.10;37.60;;;20.10;99.90;;;;;;5089018;28;20492;-62
2023/06/23 02:25:11;;;;;;;65.73;42.60;;;20.00;99.90;;;;;;5058951;28;20484;-61
2023/06/23 02:27:39;;;;;;;64.80;39.73;;;20.00;99.90;;;;;;5066125;28;20908;-62
2023/06/23 02:30:08;;;;;;;65.73;45.27;;;19.90;99.90;;;;;;5074041;28;20460;-61
2023/06/23 02:32:34;;;;;;;60.73;40.43;;;19.80;99.90;;;;;;5077009;28;20488;-61
2023/06/23 02:35:03;;;;;;;64.30;43.10;;;19.90;99.90;;;;;;5069614;27;20487;-61
2023/06/23 02:37:32;;;;;;;61.33;40.90;;;19.90;99.90;;;;;;5084538;28;20535;-61
2023/06/23 02:40:01;;;;;;;66.10;42.73;;;;;;;;;;5036011;28;20915;-61
2023/06/23 02:42:35;;;;;;;60.73;43.13;;;19.90;99.90;;;;;;5051941;28;20798;-61
2023/06/23 02:45:06;;;;;;;79.17;47.70;;;19.90;99.90;;;;;;5045318;28;20462;-61
2023/06/23 02:47:38;;;;;;;72.23;46.20;;;19.90;99.90;;;;;;5075810;27;20481;-61
2023/06/23 02:50:12;;;;;;;74.03;51.23;;;19.90;99.90;;;;;;5094379;27;20538;-61
2023/06/23 02:52:44;;;;;;;68.30;46.80;;;19.90;99.90;;;;;;5058929;28;20532;-61
2023/06/23 02:55:13;;;;;;;69.60;44.20;;;20.00;99.90;;;;;;5062323;28;21081;-61
2023/06/23 02:57:42;;;;;;;70.17;46.07;;;20.00;99.90;;;;;;5068082;28;21220;-61
2023/06/23 03:00:19;;;;;;;71.33;44.50;;;20.00;99.90;;;;;;5070043;27;20491;-61
2023/06/23 03:02:52;;;;;;;68.23;47.90;;;20.00;99.90;;;;;;5101156;27;20801;-61
2023/06/23 03:05:21;;;;;;;67.83;46.23;;;20.00;99.90;;;;;;5100826;28;20494;-61
2023/06/23 03:07:51;;;;;;;79.43;47.37;;;19.90;99.90;;;;;;5073125;28;20479;-61
2023/06/23 03:10:18;;;;;;;73.33;46.13;;;19.90;99.90;;;;;;5079335;28;20481;-62
2023/06/23 03:12:44;;;;;;;79.57;47.00;;;19.80;99.90;;;;;;5100284;28;20621;-62
2023/06/23 03:15:12;;;;;;;77.70;47.10;;;19.80;99.90;;;;;;5066970;28;20553;-61
2023/06/23 03:17:41;;;;;;;67.97;44.97;;;19.70;99.90;;;;;;5056899;28;20497;-61
2023/06/23 03:20:12;;;;;;;80.07;47.30;;;19.80;99.90;;;;;;5077496;28;20662;-61
2023/06/23 03:22:46;;;;;;;73.20;43.57;;;19.80;99.90;;;;;;5081888;28;20846;-61
2023/06/23 03:25:17;;;;;;;73.30;47.60;;;19.80;99.90;;;;;;5095575;28;20466;-61
2023/06/23 03:27:46;;;;;;;76.80;47.33;;;19.80;99.90;;;;;;5074703;28;20577;-61
2023/06/23 03:30:19;;;;;;;76.90;50.20;;;19.80;99.90;;;;;;5078634;28;20477;-62
2023/06/23 03:32:50;;;;;;;81.03;45.70;;;19.80;99.90;;;;;;5087650;28;20482;-61
2023/06/23 03:35:20;;;;;;;72.47;44.87;;;19.80;99.90;;;;;;5086945;28;24788;-61
2023/06/23 03:37:50;;;;;;;71.40;44.80;;;19.80;99.90;;;;;;5093847;28;20473;-61
2023/06/23 03:40:21;;;;;;;73.73;45.10;;;19.80;99.90;;;;;;5096105;28;20482;-61
2023/06/23 03:42:52;;;;;;;72.70;48.57;;;19.80;99.90;;;;;;5081995;28;20500;-61
2023/06/23 03:45:20;;;;;;;67.87;43.90;;;19.80;99.90;;;;;;5089450;28;20588;-61
2023/06/23 03:47:49;;;;;;;75.67;47.73;;;19.80;99.90;;;;;;5091441;28;20992;-61
2023/06/23 03:50:22;;;;;;;74.77;49.90;;;19.80;99.90;;;;;;5095317;27;20484;-62
2023/06/23 03:52:51;;;;;;;72.97;45.87;;;19.80;99.90;;;;;;5096028;28;20814;-62
2023/06/23 03:55:21;;;;;;;73.20;47.33;;;19.80;99.90;;;;;;5086578;28;20995;-62
2023/06/23 03:57:50;;;;;;;72.70;45.00;;;19.80;99.90;;;;;;5079914;28;20564;-62
2023/06/23 04:00:21;;;;;;;71.23;45.10;;;19.80;99.90;;;;;;5069850;28;21376;-60
2023/06/23 04:02:52;;;;;;;71.03;46.37;;;19.80;99.90;;;;;;5048846;28;20841;-61
2023/06/23 04:05:21;;;;;;;87.63;52.73;;;19.80;99.90;;;;;;5092416;28;20462;-61
2023/06/23 04:07:50;;;;;;;69.57;42.37;;;19.80;99.90;;;;;;5059804;28;20526;-61
2023/06/23 04:10:19;;;;;;;75.90;50.80;;;;;;;;;;5087772;28;21149;-61
2023/06/23 04:12:48;;;;;;;73.60;46.27;;;19.70;99.90;;;;;;5052622;28;20531;-61
2023/06/23 04:15:18;;;;;;;72.00;46.90;;;19.70;99.90;;;;;;5090879;28;21039;-61
2023/06/23 04:17:46;;;;;;;79.17;48.20;;;19.70;99.90;;;;;;5076274;28;20466;-61
2023/06/23 04:20:15;;;;;;;75.63;46.13;;;19.70;99.90;;;;;;5090711;28;21118;-61
2023/06/23 04:22:45;;;;;;;73.10;42.60;;;19.70;99.90;;;;;;5043099;28;20881;-61
2023/06/23 04:25:14;;;;;;;76.63;45.57;;;19.60;99.90;;;;;;5062596;28;20474;-60
2023/06/23 04:27:43;;;;;;;74.07;46.60;;;19.60;99.90;;;;;;5088585;28;20482;-60
2023/06/23 04:30:12;;;;;;;74.67;46.30;;;19.60;99.90;;;;;;5098198;28;20817;-61
2023/06/23 04:32:40;;;;;;;90.37;47.20;;;19.60;99.90;;;;;;5063308;28;20532;-61
2023/06/23 04:35:07;;;;;;;68.73;47.70;;;19.60;99.90;;;;;;5092285;28;20762;-61
2023/06/23 04:37:40;;;;;;;71.23;45.60;;;19.70;99.90;;;;;;5094056;28;20477;-61
2023/06/23 04:40:12;;;;;;;71.83;45.00;;;19.60;99.90;;;;;;5041726;28;20954;-60
2023/06/23 04:42:46;;;;;;;69.27;43.50;;;19.70;99.90;;;;;;5095358;28;20493;-60
2023/06/23 04:45:18;;;;;;;71.33;44.40;;;19.80;99.90;;;;;;5085431;28;20488;-61
2023/06/23 04:47:50;;;;;;;76.20;48.60;;;;;;;;;;5074936;28;20484;-61
2023/06/23 04:50:17;;;;;;;72.10;44.87;;;19.80;99.90;;;;;;5081643;28;20517;-61
2023/06/23 04:52:50;;;;;;;74.00;45.93;;;19.80;99.90;;;;;;5079444;28;20549;-61
2023/06/23 04:55:19;;;;;;;72.47;45.73;;;19.90;99.90;;;;;;5051329;28;20918;-61
2023/06/23 04:57:50;;;;;;;66.33;41.93;;;19.90;99.90;;;;;;5067766;28;20482;-61
2023/06/23 05:00:22;;;;;;;70.67;44.00;;;20.00;99.90;;;;;;5056378;28;20483;-61
2023/06/23 05:02:50;;;;;;;62.77;41.40;;;20.00;99.90;;;;;;5079122;28;20531;-61
2023/06/23 05:05:21;;;;;;;68.93;41.63;;;20.10;99.90;;;;;;5058160;28;20493;-61
2023/06/23 05:07:50;;;;;;;65.70;42.17;;;20.20;99.90;;;;;;5064548;28;20911;-61
2023/06/23 05:10:19;;;;;;;65.83;43.13;;;20.20;99.90;;;;;;5054919;28;20474;-61
2023/06/23 05:12:48;;;;;;;62.13;41.33;;;20.20;99.90;;;;;;5064255;28;20684;-61
2023/06/23 05:15:18;;;;;;;67.07;43.00;;;20.20;99.90;;;;;;5052149;28;20570;-61
2023/06/23 05:17:47;;;;;;;70.57;44.53;;;20.20;99.90;;;;;;5068895;28;20484;-61
2023/06/23 05:20:16;;;;;;;62.80;42.43;;;20.20;99.90;;;;;;5086039;28;20474;-61
2023/06/23 05:22:46;;;;;;;64.60;42.27;;;20.20;99.90;;;;;;5090547;27;20509;-61
2023/06/23 05:25:14;;;;;;;72.37;40.90;;;20.30;99.90;;;;;;5078178;27;20616;-62
2023/06/23 05:27:44;;;;;;;65.60;43.93;;;20.30;99.90;;;;;;5077567;27;20486;-61
2023/06/23 05:30:17;;;;;;;70.73;43.53;;;20.30;99.90;;;;;;5070536;28;20490;-61
2023/06/23 05:32:45;;;;;;;59.90;39.77;;;20.30;99.90;;;;;;5077035;27;20473;-61
2023/06/23 05:35:14;;;;;;;63.03;42.90;;;20.30;99.90;;;;;;5062020;28;20481;-61
2023/06/23 05:37:43;;;;;;;67.23;41.57;;;20.30;99.90;;;;;;5055888;28;20956;-61
2023/06/23 05:40:12;;;;;;;66.33;40.97;;;20.30;99.90;;;;;;5066451;27;20907;-61
2023/06/23 05:42:40;;;;;;;53.97;36.10;;;20.40;99.90;;;;;;5063300;28;20483;-61
2023/06/23 05:45:09;;;;;;;72.70;43.57;;;20.30;99.90;;;;;;5073394;28;20895;-62
2023/06/23 05:47:42;;;;;;;67.63;39.77;;;20.40;99.90;;;;;;5075812;28;20470;-61
2023/06/23 05:50:18;;;;;;;57.17;38.43;;;20.40;99.70;;;;;;5058481;28;20953;-61
2023/06/23 05:52:53;;;;;;;59.43;37.40;;;20.50;99.80;;;;;;5093815;28;20555;-61
2023/06/23 05:55:21;;;;;;;61.20;40.20;;;20.50;99.70;;;;;;5079518;28;20757;-62
2023/06/23 05:57:50;;;;;;;54.40;36.50;;;20.50;99.80;;;;;;5073331;28;20486;-61
2023/06/23 06:00:19;;;;;;;53.13;37.90;;;20.50;99.40;;;;;;5065239;28;20477;-61
2023/06/23 06:02:50;;;;;;;69.60;38.37;;;20.50;99.40;;;;;;5084529;28;20486;-62
2023/06/23 06:05:20;;;;;;;54.87;36.20;;;20.40;99.40;;;;;;5073169;28;20482;-61
2023/06/23 06:07:48;;;;;;;56.90;35.03;;;20.50;99.40;;;;;;5074529;28;20490;-62
2023/06/23 06:10:16;;;;;;;72.73;39.63;;;20.50;99.40;;;;;;5069962;28;20474;-62
2023/06/23 06:12:46;;;;;;;52.00;33.47;;;20.40;99.30;;;;;;5072129;28;20843;-61
2023/06/23 06:15:14;;;;;;;62.23;37.63;;;20.40;99.30;;;;;;5073285;28;20538;-61
2023/06/23 06:17:42;;;;;;;64.87;37.63;;;20.50;99.30;;;;;;5061430;28;20838;-60
2023/06/23 06:20:14;;;;;;;59.87;37.67;;;20.50;99.50;;;;;;5061929;28;20481;-61
2023/06/23 06:22:42;;;;;;;61.93;35.10;;;20.70;99.10;;;;;;5083008;28;20508;-61
2023/06/23 06:25:11;;;;;;;52.40;34.93;;;20.80;99.30;;;;;;5072584;28;20489;-61
2023/06/23 06:27:40;;;;;;;52.70;32.60;;;20.80;98.80;;;;;;5070603;28;20482;-62
2023/06/23 06:30:08;;;;;;;57.47;39.00;;;20.60;97.90;;;;;;5081669;28;20941;-61
2023/06/23 06:32:38;;;;;;;50.37;33.37;;;20.60;97.80;;;;;;5047301;28;20473;-61
2023/06/23 06:35:07;;;;;;;52.50;34.50;;;20.50;98.20;;;;;;5072018;28;20492;-61
2023/06/23 06:37:41;;;;;;;49.73;31.20;;;20.50;98.40;;;;;;5059506;28;20477;-61
2023/06/23 06:40:11;;;;;;;46.83;32.37;;;20.50;98.70;;;;;;5044696;28;20477;-61
2023/06/23 06:42:38;;;;;;;50.90;33.37;;;20.60;98.20;;;;;;5032021;28;20536;-61
2023/06/23 06:45:05;;;;;;;58.23;35.37;;;20.70;98.00;;;;;;5076005;28;21204;-61
2023/06/23 06:47:34;;;;;;;51.70;31.70;;;20.70;98.00;;;;;;5092572;28;20527;-61
2023/06/23 06:50:03;;;;;;;57.60;32.17;;;20.70;98.00;;;;;;5070294;28;21137;-62
2023/06/23 06:52:31;;;;;;;45.63;28.90;;;20.80;97.70;;;;;;5090061;28;20521;-61
2023/06/23 06:55:00;;;;;;;54.90;33.73;;;20.80;97.50;;;;;;5091622;28;20489;-61
2023/06/23 06:57:27;;;;;;;46.50;28.20;;;20.90;97.30;;;;;;5094459;28;20542;-61
2023/06/23 06:59:54;;;;;;;44.03;28.57;;;20.90;97.20;;;;;;5077440;28;20482;-61
2023/06/23 07:02:22;;;;;;;44.87;28.30;;;21.00;97.80;;;;;;5081990;28;20548;-61
2023/06/23 07:04:49;;;;;;;46.00;28.23;;;21.20;97.70;;;;;;5092200;28;20489;-62
2023/06/23 07:07:16;;;;;;;42.10;27.60;;;21.30;97.20;;;;;;5063342;28;20482;-61
2023/06/23 07:09:43;;;;;;;35.63;25.37;;;21.40;97.20;;;;;;5063806;28;20500;-62
2023/06/23 07:12:11;;;;;;;39.73;26.90;;;21.60;97.40;;;;;;5062811;28;20571;-61
2023/06/23 07:14:38;;;;;;;35.17;24.47;;;;;;;;;;5083791;27;20549;-61
2023/06/23 07:17:05;;;;;;;38.17;25.10;;;21.70;96.50;;;;;;5086138;27;20834;-61
2023/06/23 07:19:32;;;;;;;37.03;21.80;;;21.80;95.90;;;;;;5069121;28;20873;-61
2023/06/23 07:21:59;;;;;;;32.60;21.47;;;21.80;95.50;;;;;;5050959;28;20549;-61
2023/06/23 07:24:25;;;;;;;32.27;21.43;;;21.90;95.70;;;;;;5058864;28;20492;-61
2023/06/23 07:26:52;;;;;;;38.50;20.97;;;22.10;95.30;;;;;;5034927;28;20537;-61
2023/06/23 07:29:20;;;;;;;29.73;20.97;;;21.90;95.10;;;;;;5073130;28;20877;-61
2023/06/23 07:31:47;;;;;;;33.33;21.40;;;22.00;95.60;;;;;;5093555;28;20734;-61
2023/06/23 07:34:14;;;;;;;38.70;22.50;;;22.00;94.80;;;;;;5048671;28;20482;-62
2023/06/23 07:36:41;;;;;;;39.07;25.47;;;22.30;95.80;;;;;;5097272;28;20482;-61
2023/06/23 07:39:08;;;;;;;36.73;24.83;;;22.30;95.50;;;;;;5096219;28;20484;-62
2023/06/23 07:41:35;;;;;;;34.30;18.93;;;22.30;95.00;;;;;;5083548;28;20482;-62
2023/06/23 07:44:02;;;;;;;38.60;23.90;;;22.40;94.80;;;;;;5061275;28;20967;-62
2023/06/23 07:46:30;;;;;;;30.33;20.50;;;22.30;94.30;;;;;;5070239;28;20480;-62
2023/06/23 07:48:57;;;;;;;29.07;18.30;;;22.60;94.40;;;;;;5092921;28;21619;-62
2023/06/23 07:51:24;;;;;;;30.47;21.47;;;22.70;94.00;;;;;;5063618;28;20539;-62
2023/06/23 07:53:50;;;;;;;28.33;17.93;;;22.80;94.30;;;;;;5068862;28;20877;-62
2023/06/23 07:56:17;;;;;;;36.17;20.37;;;23.00;93.10;;;;;;5090542;28;20526;-62
2023/06/23 07:58:44;;;;;;;29.10;21.00;;;23.10;92.40;;;;;;5055473;28;20486;-64
2023/06/23 08:01:12;;;;;;;26.00;19.37;;;23.30;93.90;;;;;;5059185;28;20483;-63
2023/06/23 08:03:44;;;;;;;31.80;18.33;;;23.60;93.20;;;;;;5069085;28;21004;-63
2023/06/23 08:06:11;;;;;;;28.03;20.20;;;23.70;92.80;;;;;;5071965;28;20478;-63
2023/06/23 08:08:38;;;;;;;25.03;17.77;;;23.60;92.30;;;;;;5074853;28;20486;-62
2023/06/23 08:11:05;;;;;;;33.30;19.30;;;23.30;91.40;;;;;;5070763;28;20540;-62
2023/06/23 08:13:31;;;;;;;30.50;17.37;;;23.20;91.70;;;;;;5093110;28;20492;-62
2023/06/23 08:15:58;;;;;;;25.33;18.50;;;23.30;92.50;;;;;;5095106;28;20490;-63
2023/06/23 08:18:25;;;;;;;29.50;17.30;;;23.50;92.00;;;;;;5095075;28;20486;-62
2023/06/23 08:20:54;;;;;;;25.37;17.17;;;23.60;92.30;;;;;;5096639;28;20502;-62
2023/06/23 08:23:21;;;;;;;23.33;16.57;;;23.70;92.20;;;;;;5099520;28;20479;-62
2023/06/23 08:25:48;;;;;;;25.87;17.50;;;24.00;91.60;;;;;;5081654;28;20843;-62
2023/06/23 08:28:15;;;;;;;24.73;18.27;;;24.00;91.00;;;;;;5060874;28;20483;-63
2023/06/23 08:30:41;;;;;;;25.17;17.27;;;24.10;91.80;;;;;;5071828;27;20475;-62
2023/06/23 08:33:09;;;;;;;22.90;14.63;;;24.30;91.90;;;;;;5071744;28;20807;-62
2023/06/23 08:35:36;;;;;;;24.13;15.17;;;24.40;90.70;;;;;;5070210;28;20896;-62
2023/06/23 08:38:05;;;;;;;24.80;13.67;;;24.60;90.80;;;;;;5074999;28;20449;-62
2023/06/23 08:40:34;;;;;;;29.80;17.70;;;24.70;90.80;;;;;;5070825;27;20473;-62
2023/06/23 08:43:02;;;;;;;21.10;13.50;;;24.60;88.70;;;;;;5045173;28;20516;-62
2023/06/23 08:45:30;;;;;;;20.77;13.37;;;25.70;89.20;;;;;;5085142;28;20476;-62
2023/06/23 08:48:01;;;;;;;13.90;11.43;;;24.70;90.60;;;;;;5079820;28;20452;-62
2023/06/23 08:50:28;;;;;;;20.87;14.60;;;24.90;90.00;;;;;;5070105;27;20482;-63
2023/06/23 08:52:58;;;;;;;14.03;10.73;;;24.90;88.20;;;;;;5065450;28;20894;-62
2023/06/23 08:55:27;;;;;;;16.37;12.50;;;24.80;87.80;;;;;;5054073;28;20974;-62
2023/06/23 08:57:56;;;;;;;11.80;10.27;;;24.60;86.30;;;;;;5062660;28;20513;-62
2023/06/23 09:00:23;;;;;;;19.47;9.50;;;24.70;86.50;;;;;;5056920;28;20496;-63
2023/06/23 09:02:50;;;;;;;16.90;11.00;;;24.80;87.10;;;;;;5077454;28;20487;-62
2023/06/23 09:05:17;;;;;;;16.63;12.23;;;24.90;87.40;;;;;;5099667;27;21261;-62
2023/06/23 09:07:44;;;;;;;22.80;13.10;;;24.80;86.60;;;;;;5095956;27;20493;-62
2023/06/23 09:10:12;;;;;;;21.30;13.70;;;24.70;87.60;;;;;;5100568;27;20535;-63
2023/06/23 09:12:43;;;;;;;18.63;12.50;;;;;;;;;;5059980;28;20493;-62
2023/06/23 09:15:13;;;;;;;16.97;11.53;;;24.90;90.00;;;;;;5070911;28;20462;-63
2023/06/23 09:17:43;;;;;;;14.90;10.20;;;25.40;89.10;;;;;;5076716;28;21007;-62
2023/06/23 09:20:11;;;;;;;25.90;11.10;;;25.90;85.20;;;;;;5084303;28;20507;-63
2023/06/23 09:22:39;;;;;;;18.90;12.23;;;26.30;86.30;;;;;;5062798;28;20488;-62
2023/06/23 09:25:07;;;;;;;19.87;11.50;;;26.50;86.40;;;;;;5059559;28;20829;-62
2023/06/23 09:27:43;;;;;;;13.70;11.13;;;26.50;83.30;;;;;;5051925;28;20484;-62
2023/06/23 09:30:11;;;;;;;33.30;13.77;;;26.40;84.50;;;;;;5067443;28;20458;-62
2023/06/23 09:32:38;;;;;;;19.77;12.50;;;26.10;83.80;;;;;;5067405;28;20488;-61
2023/06/23 09:35:05;;;;;;;22.53;12.40;;;25.70;83.20;;;;;;5063812;28;20570;-62
2023/06/23 09:37:35;;;;;;;16.40;11.23;;;25.60;81.70;;;;;;5064841;28;20484;-61
2023/06/23 09:40:06;;;;;;;14.50;10.83;;;25.70;82.20;;;;;;5065064;28;20474;-62
2023/06/23 09:42:33;;;;;;;17.43;10.50;;;25.70;82.00;;;;;;5078842;28;20496;-62
2023/06/23 09:45:02;;;;;;;8.83;7.80;;;25.70;83.80;;;;;;5074717;28;20483;-62
2023/06/23 09:47:29;;;;;;;32.87;11.73;;;25.90;81.90;;;;;;5076967;28;20890;-62
2023/06/23 09:49:56;;;;;;;12.40;10.17;;;25.90;83.10;;;;;;5073944;28;20967;-62
2023/06/23 09:52:25;;;;;;;14.03;10.90;;;26.00;85.70;;;;;;5074643;28;20462;-62
2023/06/23 09:54:51;;;;;;;12.87;9.53;;;25.80;82.10;;;;;;5085080;28;20457;-62
2023/06/23 09:57:20;;;;;;;17.50;10.53;;;26.50;85.80;;;;;;5052640;28;20878;-61
2023/06/23 09:59:50;;;;;;;12.50;9.87;;;26.60;83.20;;;;;;5055054;28;20520;-62
2023/06/23 10:02:23;;;;;;;19.47;10.47;;;26.40;79.80;;;;;;5060162;28;20458;-62
2023/06/23 10:04:51;;;;;;;12.50;9.17;;;26.30;78.30;;;;;;5092489;27;20533;-62
2023/06/23 10:07:19;;;;;;;13.53;9.87;;;;;;;;;;5083691;28;21167;-61
2023/06/23 10:09:50;;;;;;;15.03;10.30;;;26.50;82.10;;;;;;5073763;28;20496;-62
2023/06/23 10:12:19;;;;;;;19.30;10.57;;;26.80;81.60;;;;;;5025558;28;21047;-61
2023/06/23 10:14:47;;;;;;;25.53;9.87;;;27.20;81.20;;;;;;5072186;28;20935;-62
2023/06/23 10:17:14;;;;;;;14.70;10.67;;;26.90;77.30;;;;;;5065050;28;20659;-61
2023/06/23 10:19:42;;;;;;;14.87;11.27;;;26.70;76.80;;;;;;5060524;28;20465;-62
2023/06/23 10:22:09;;;;;;;13.83;9.50;;;26.90;80.30;;;;;;5068523;28;20796;-62
2023/06/23 10:24:37;;;;;;;12.17;9.23;;;27.10;79.70;;;;;;5066520;28;20550;-62
2023/06/23 10:27:05;;;;;;;9.97;8.47;;;27.10;76.40;;;;;;5073525;28;20889;-62
2023/06/23 10:29:39;;;;;;;21.33;10.73;;;27.20;78.40;;;;;;5043104;28;20458;-62
2023/06/23 10:32:11;;;;;;;14.77;9.97;;;27.20;76.30;;;;;;5062069;28;21518;-62
2023/06/23 10:34:41;;;;;;;14.93;10.27;;;27.30;76.40;;;;;;5066409;28;20488;-62
2023/06/23 10:37:15;;;;;;;13.13;9.03;;;27.20;76.90;;;;;;5050676;28;21280;-61
2023/06/23 10:39:48;;;;;;;17.00;10.10;;;27.20;74.00;;;;;;5050111;28;20455;-62
2023/06/23 10:42:16;;;;;;;18.27;9.40;;;27.30;75.10;;;;;;5049215;28;20573;-61
2023/06/23 10:44:44;;;;;;;16.80;10.93;;;27.60;75.00;;;;;;5058806;28;20493;-62
2023/06/23 10:47:12;;;;;;;16.40;11.30;;;27.70;76.60;;;;;;5084262;27;20479;-62
2023/06/23 10:49:40;;;;;;;11.47;8.80;;;27.90;72.40;;;;;;5085677;27;20755;-62
2023/06/23 10:52:11;;;;;;;10.30;8.17;;;28.10;75.90;;;;;;5083118;28;20929;-62
2023/06/23 10:54:38;;;;;;;14.83;9.17;;;28.20;73.80;;;;;;5063834;28;20467;-62
2023/06/23 10:57:10;;;;;;;14.60;9.63;;;28.20;73.70;;;;;;5066027;27;20670;-62
2023/06/23 10:59:42;;;;;;;14.30;9.93;;;28.20;75.00;;;;;;5085006;27;20448;-62
2023/06/23 11:02:19;;;;;;;16.33;8.20;;;28.40;75.80;;;;;;5078239;27;20443;-62
2023/06/23 11:04:55;;;;;;;14.70;10.87;;;28.50;74.30;;;;;;5083799;27;20454;-62
2023/06/23 11:07:25;;;;;;;15.80;7.60;;;28.70;72.40;;;;;;5073604;27;20493;-62
2023/06/23 11:10:04;;;;;;;9.73;8.20;;;29.00;72.30;;;;;;5059742;28;20500;-62
2023/06/23 11:12:33;;;;;;;20.53;9.63;;;28.90;71.60;;;;;;5096792;27;20479;-62
2023/06/23 11:15:12;;;;;;;10.27;7.37;;;28.80;72.60;;;;;;5086112;27;20929;-63
2023/06/23 11:17:44;;;;;;;11.23;8.67;;;28.50;70.00;;;;;;5087091;27;20458;-63
2023/06/23 11:20:28;;;;;;;15.83;10.93;;;28.30;71.70;;;;;;5086922;27;20476;-62
2023/06/23 11:23:00;;;;;;;13.37;8.67;;;28.50;74.00;;;;;;5091911;27;20520;-62
2023/06/23 11:25:31;;;;;;;13.17;9.47;;;28.70;74.40;;;;;;5093987;27;20515;-62
2023/06/23 11:28:35;;;;;;;10.50;8.33;;;28.80;69.40;;;;;;5101297;27;25706;-63
2023/06/23 11:31:12;;;;;;;12.30;7.80;;;28.90;70.60;;;;;;5090346;27;20465;-63
2023/06/23 11:33:40;;;;;;;12.23;7.83;;;28.70;70.00;;;;;;5108951;27;20878;-63
2023/06/23 11:36:09;;;;;;;10.30;8.33;;;28.90;72.60;;;;;;5107567;27;20919;-63
2023/06/23 11:38:39;;;;;;;13.53;8.83;;;28.80;72.20;;;;;;5093902;27;20456;-62
2023/06/23 11:41:07;;;;;;;9.77;8.13;;;29.00;70.50;;;;;;5101610;27;20919;-63
2023/06/23 11:43:34;;;;;;;12.47;8.60;;;29.10;68.60;;;;;;5095565;27;20809;-62
2023/06/23 11:46:07;;;;;;;8.40;7.07;;;29.20;69.50;;;;;;5102295;27;20486;-63
2023/06/23 11:48:35;;;;;;;12.97;8.80;;;29.20;69.10;;;;;;5103483;27;20511;-63
2023/06/23 11:51:03;;;;;;;5.87;5.33;;;29.20;68.50;;;;;;5106769;27;20528;-63
2023/06/23 11:53:30;;;;;;;6.57;6.03;;;29.20;69.40;;;;;;5106559;27;20459;-63
2023/06/23 11:55:58;;;;;;;6.23;5.67;;;29.30;70.10;;;;;;5104319;27;20449;-63
2023/06/23 11:58:25;;;;;;;7.07;6.23;;;29.50;68.70;;;;;;5103169;27;20708;-62
2023/06/23 12:00:51;;;;;;;5.57;4.60;;;29.70;68.30;;;;;;5107480;27;20461;-63
2023/06/23 12:03:18;;;;;;;5.57;5.10;;;29.90;67.40;;;;;;5106636;27;20482;-63
2023/06/23 12:05:46;;;;;;;10.33;8.60;;;29.90;64.70;;;;;;5104172;27;20479;-63
2023/06/23 12:08:13;;;;;;;13.33;8.70;;;29.80;65.40;;;;;;5095406;27;20461;-63
2023/06/23 12:10:40;;;;;;;7.40;6.70;;;29.70;66.20;;;;;;5105755;27;20536;-63
2023/06/23 12:13:09;;;;;;;6.50;5.90;;;;;;;;;;5104768;27;21225;-63
2023/06/23 12:15:37;;;;;;;11.20;6.27;;;30.10;67.80;;;;;;5106382;27;20484;-63
2023/06/23 12:18:04;;;;;;;5.63;5.07;;;30.20;64.90;;;;;;5106769;27;20785;-63
2023/06/23 12:20:34;;;;;;;7.90;5.80;;;30.20;63.30;;;;;;5107381;27;20756;-63
2023/06/23 12:23:03;;;;;;;7.87;5.23;;;30.30;65.60;;;;;;5066663;27;20571;-64
2023/06/23 12:25:31;;;;;;;5.30;4.80;;;30.50;64.50;;;;;;5103768;27;20508;-63
2023/06/23 12:27:58;;;;;;;7.90;5.77;;;30.60;66.50;;;;;;5041067;27;20485;-63
2023/06/23 12:30:27;;;;;;;7.57;5.10;;;30.60;65.00;;;;;;5089336;27;20488;-63
2023/06/23 12:32:56;;;;;;;10.50;7.43;;;30.60;65.00;;;;;;5081314;27;21350;-62
2023/06/23 12:35:22;;;;;;;11.07;7.87;;;30.40;62.70;;;;;;5102740;27;20479;-63
2023/06/23 12:37:50;;;;;;;12.33;8.53;;;30.40;62.50;;;;;;5099812;27;20451;-63
2023/06/23 12:40:30;;;;;;;14.60;9.40;;;30.40;64.10;;;;;;5065911;27;20479;-63
2023/06/23 12:42:57;;;;;;;10.50;6.20;;;30.50;65.60;;;;;;5040059;28;20472;-63